Time;durP1;ratioP1;P1;durP2;ratioP2;P2;SDS_P1;SDS_P2;PMS_P1;PMS_P2;Temp;Humidity;BMP_temperature;BMP_pressure;BME280_temperature;BME280_humidity;BME280_pressure;Samples;Min_cycle;Max_cycle;Signal;HPM_P1;HPM_P2
2022/11/19 00:02:52;;;;;;;21.57;11.07;;;;;;;5.20;98.06;99739.47;31418559;28;20056;-80
2022/11/19 00:17:57;;;;;;;19.97;9.77;;;;;;;5.19;99.14;99721.03;31412957;28;20049;-79
2022/11/19 00:32:58;;;;;;;19.03;9.90;;;;;;;5.24;99.78;99666.78;31424395;28;20430;-80
2022/11/19 00:48:00;;;;;;;21.07;8.50;;;;;;;5.37;100.00;99667.88;31420616;28;20060;-80
2022/11/19 01:03:02;;;;;;;23.20;8.87;;;;;;;5.47;100.00;99588.97;31423588;28;20417;-80
2022/11/19 01:18:04;;;;;;;28.00;10.67;;;;;;;5.55;100.00;99550.09;31448474;28;20063;-80
2022/11/19 01:33:07;;;;;;;18.13;8.53;;;;;;;5.70;100.00;99540.72;31439441;28;20057;-82
2022/11/19 01:48:16;;;;;;;18.10;8.50;;;;;;;5.65;100.00;99538.47;31436568;28;20057;-78
2022/11/19 02:03:18;;;;;;;13.10;7.00;;;;;;;5.80;100.00;99512.16;31430966;28;20053;-78
2022/11/19 02:18:37;;;;;;;14.47;7.40;;;;;;;5.95;100.00;99464.31;31436646;28;20056;-79
2022/11/19 02:33:56;;;;;;;14.10;6.83;;;;;;;6.09;100.00;99424.50;31424497;28;20044;-78
2022/11/19 02:48:59;;;;;;;12.30;6.10;;;;;;;6.36;100.00;99413.75;31445424;28;20065;-79
2022/11/19 03:19:33;;;;;;;5.83;3.03;;;;;;;6.91;100.00;99396.38;31413185;28;20053;-79
2022/11/19 03:34:37;;;;;;;6.63;3.50;;;;;;;7.14;100.00;99330.81;31438285;28;20052;-80
2022/11/19 03:49:43;;;;;;;6.87;3.13;;;;;;;7.65;100.00;99299.00;31421151;28;20458;-79
2022/11/19 04:04:45;;;;;;;4.70;2.97;;;;;;;8.21;100.00;99232.13;31405826;28;20497;-79
2022/11/19 04:19:47;;;;;;;5.73;3.20;;;;;;;8.38;100.00;99220.13;31413169;28;20069;-79
2022/11/19 04:34:49;;;;;;;6.23;3.07;;;;;;;8.73;100.00;99206.88;31412567;28;20052;-78
2022/11/19 04:49:51;;;;;;;5.50;3.90;;;;;;;9.33;100.00;99207.16;31423577;28;20494;-79
2022/11/19 05:04:53;;;;;;;13.27;6.13;;;;;;;9.88;100.00;99220.22;31403267;28;20107;-78
2022/11/19 05:19:54;;;;;;;8.17;5.20;;;;;;;10.19;100.00;99219.66;31410195;28;20482;-79
2022/11/19 05:34:56;;;;;;;8.80;4.07;;;;;;;10.45;100.00;99214.94;31413816;28;20060;-77
2022/11/19 05:49:58;;;;;;;7.07;3.70;;;;;;;10.53;100.00;99173.56;31416792;28;20081;-79
2022/11/19 06:05:00;;;;;;;8.60;3.60;;;;;;;10.81;100.00;99143.91;31411368;28;20060;-80
2022/11/19 06:20:03;;;;;;;4.83;2.60;;;;;;;11.19;100.00;99133.56;31439470;28;20052;-79
2022/11/19 06:35:05;;;;;;;2.67;1.97;;;;;;;11.40;100.00;99098.63;31428292;28;20052;-80
2022/11/19 06:50:08;;;;;;;4.37;2.10;;;;;;;11.70;100.00;99114.13;31416762;28;20053;-78
2022/11/19 07:05:10;;;;;;;2.40;2.00;;;;;;;12.04;100.00;99109.72;31427016;28;20052;-79
2022/11/19 07:20:12;;;;;;;5.57;2.23;;;;;;;12.37;100.00;99109.88;31422992;28;20057;-80
2022/11/19 07:35:17;;;;;;;3.80;2.60;;;;;;;12.59;100.00;99094.88;31438145;28;20499;-78
2022/11/19 07:50:19;;;;;;;7.40;3.53;;;;;;;12.78;100.00;99092.09;31428639;28;20079;-80
2022/11/19 08:05:21;;;;;;;10.63;5.93;;;;;;;13.07;100.00;99095.06;31419541;28;20048;-80
2022/11/19 08:20:23;;;;;;;14.63;8.03;;;;;;;13.45;100.00;99091.78;31398816;28;20060;-81
2022/11/19 08:35:25;;;;;;;28.27;11.27;;;;;;;13.89;100.00;99102.91;31416156;28;20044;-79
2022/11/19 08:50:28;;;;;;;25.57;11.07;;;;;;;14.39;100.00;99099.66;31422058;28;20048;-79
2022/11/19 09:05:30;;;;;;;19.70;10.30;;;;;;;14.99;100.00;99119.13;31415701;28;20048;-79
2022/11/19 09:20:34;;;;;;;22.63;9.23;;;;;;;15.24;100.00;99139.66;31408796;28;20052;-81
2022/11/19 09:35:37;;;;;;;30.17;10.27;;;;;;;15.68;100.00;99149.78;31462137;28;20059;-79
2022/11/19 09:50:54;;;;;;;29.53;11.70;;;;;;;15.55;100.00;99154.81;31470893;28;20407;-80
2022/11/19 10:06:19;;;;;;;24.47;13.93;;;;;;;16.42;100.00;99163.94;31431925;28;20409;-79
2022/11/19 10:21:30;;;;;;;28.03;13.63;;;;;;;17.14;93.17;99176.91;31441657;28;20470;-79
2022/11/19 10:36:42;;;;;;;20.23;11.13;;;;;;;18.27;89.88;99204.66;31425583;28;20433;-79
2022/11/19 10:51:44;;;;;;;19.03;10.47;;;;;;;19.01;80.61;99234.69;31441430;28;20064;-80
2022/11/19 11:07:01;;;;;;;20.73;12.13;;;;;;;16.87;87.96;99277.59;31422265;28;20056;-80
2022/11/19 11:22:03;;;;;;;24.33;11.87;;;;;;;16.46;90.65;99325.38;31420101;28;20052;-80
2022/11/19 11:37:08;;;;;;;17.50;9.40;;;;;;;17.97;83.20;99352.53;31448915;28;20064;-79
2022/11/19 11:52:18;;;;;;;22.03;10.10;;;;;;;18.82;74.32;99412.38;31422957;28;20056;-81
2022/11/19 12:07:28;;;;;;;7.07;4.43;;;;;;;16.79;78.30;99453.88;31411559;28;20057;-79
2022/11/19 12:23:15;;;;;;;5.67;3.73;;;;;;;16.80;73.34;99523.91;31417609;28;20041;-78
2022/11/19 12:38:38;;;;;;;5.50;3.27;;;;;;;14.80;78.29;99559.66;31388495;28;20506;-79
2022/11/19 12:54:05;;;;;;;4.30;3.47;;;;;;;13.57;78.13;99610.88;31409826;28;20048;-79
2022/11/19 13:09:16;;;;;;;4.03;3.00;;;;;;;13.21;81.80;99688.59;31422743;28;20118;-79
2022/11/19 13:24:30;;;;;;;5.30;3.70;;;;;;;12.48;79.77;99731.59;31399216;28;20094;-80
2022/11/19 13:39:40;;;;;;;5.57;4.03;;;;;;;11.82;78.58;99784.97;31437919;28;20052;-80
2022/11/19 13:54:44;;;;;;;4.67;3.80;;;;;;;11.49;80.03;99827.09;31413346;28;20059;-81
2022/11/19 14:10:01;;;;;;;5.10;3.93;;;;;;;11.03;80.97;99858.97;31405091;28;20056;-80
2022/11/19 14:40:36;;;;;;;5.83;4.40;;;;;;;10.34;80.99;99969.53;31437123;28;20051;-80
2022/11/19 14:55:52;;;;;;;4.83;3.70;;;;;;;9.92;78.71;100020.66;31418037;28;20147;-80
2022/11/19 15:11:11;;;;;;;3.97;3.43;;;;;;;9.65;78.40;100033.56;31433405;28;20110;-79
2022/11/19 15:26:24;;;;;;;3.73;2.97;;;;;;;9.44;76.31;100061.78;31433121;28;20064;-83
2022/11/19 15:41:34;;;;;;;4.40;2.30;;;;;;;9.14;78.21;100076.16;31458326;28;20126;-81
2022/11/19 15:56:46;;;;;;;3.33;2.57;;;;;;;8.83;76.91;100131.50;31417911;28;20061;-83
2022/11/19 16:27:12;;;;;;;4.20;2.47;;;;;;;8.36;75.37;100201.56;31416329;28;20053;-81
2022/11/19 16:42:17;;;;;;;3.90;2.30;;;;;;;8.18;75.56;100241.50;31420721;28;20077;-81
2022/11/19 16:57:22;;;;;;;3.60;2.50;;;;;;;8.11;77.68;100244.25;31411366;28;20057;-81
2022/11/19 17:12:28;;;;;;;4.50;3.10;;;;;;;7.79;77.29;100287.72;31398731;28;20049;-82
2022/11/19 17:27:29;;;;;;;;;;;;;;;7.49;76.69;100356.53;31419479;28;20515;-78
2022/11/19 17:57:51;;;;;;;4.63;2.90;;;;;;;7.87;77.60;100441.34;31434288;28;20099;-80
2022/11/19 18:12:53;;;;;;;4.53;3.10;;;;;;;7.99;76.81;100496.91;31439114;28;20049;-80
2022/11/19 18:27:55;;;;;;;4.47;3.30;;;;;;;7.81;75.66;100523.19;31438879;28;20164;-83
2022/11/19 18:58:18;;;;;;;6.13;3.57;;;;;;;7.52;76.34;100609.72;31418250;28;20182;-80
2022/11/19 19:13:20;;;;;;;5.30;3.47;;;;;;;7.33;75.29;100611.97;31426706;28;20049;-79
2022/11/19 19:28:22;;;;;;;6.10;3.60;;;;;;;7.26;76.70;100641.69;31427111;28;20064;-81
2022/11/19 19:43:24;;;;;;;4.27;3.03;;;;;;;7.16;76.18;100662.88;31424338;28;20068;-79
2022/11/19 19:58:26;;;;;;;18.87;12.20;;;;;;;7.16;77.40;100657.47;31439744;28;20052;-80
2022/11/19 20:13:30;;;;;;;6.23;4.43;;;;;;;7.25;76.54;100688.75;31410870;28;20080;-81
2022/11/19 20:28:33;;;;;;;5.67;3.87;;;;;;;7.16;76.73;100722.25;31428969;28;20048;-79
2022/11/19 20:58:56;;;;;;;6.50;4.13;;;;;;;6.86;76.76;100719.03;31431674;28;20061;-82
2022/11/19 21:13:58;;;;;;;4.63;3.60;;;;;;;6.58;76.97;100708.09;31390051;28;20053;-80
2022/11/19 21:29:01;;;;;;;6.13;4.17;;;;;;;6.63;77.75;100740.88;31448636;28;20057;-81
2022/11/19 21:44:04;;;;;;;7.00;4.03;;;;;;;6.67;77.66;100775.97;31452842;28;20057;-82
2022/11/19 21:59:06;;;;;;;6.07;4.57;;;;;;;6.70;77.14;100769.81;31438430;28;20052;-80
2022/11/19 22:14:08;;;;;;;7.37;5.20;;;;;;;6.59;77.56;100769.00;31431684;28;20061;-79
2022/11/19 22:29:10;;;;;;;5.93;4.40;;;;;;;6.58;76.99;100794.41;31434976;28;20056;-80
2022/11/19 22:44:12;;;;;;;7.97;5.50;;;;;;;6.54;77.01;100790.91;31449727;28;20053;-79
2022/11/19 22:59:14;;;;;;;5.50;4.20;;;;;;;6.39;76.64;100855.50;31419318;28;20049;-80
2022/11/19 23:14:17;;;;;;;8.53;5.23;;;;;;;6.43;77.04;100869.81;31376917;28;20064;-80
2022/11/19 23:29:19;;;;;;;5.83;3.83;;;;;;;6.46;76.28;100917.63;31415108;28;20067;-80
2022/11/19 23:44:21;;;;;;;9.87;5.50;;;;;;;6.45;76.83;100948.44;31433941;28;20057;-81
2022/11/19 23:59:23;;;;;;;7.60;4.83;;;;;;;6.41;77.30;100938.75;31411838;28;20053;-80
